createdAt,value
2023-05-23T00:01:49.750Z,100560.00
2023-05-23T00:04:19.039Z,100558.84
2023-05-23T00:06:50.806Z,100558.47
2023-05-23T00:09:21.950Z,100559.72
2023-05-23T00:11:50.683Z,100559.13
2023-05-23T00:14:19.509Z,100553.97
2023-05-23T00:16:49.704Z,100558.31
2023-05-23T00:19:18.813Z,100548.34
2023-05-23T00:21:49.583Z,100548.34
2023-05-23T00:24:19.019Z,100550.00
2023-05-23T00:26:48.900Z,100556.22
2023-05-23T00:29:17.825Z,100548.72
2023-05-23T00:31:47.545Z,100552.84
2023-05-23T00:34:18.132Z,100548.50
2023-05-23T00:36:48.159Z,100548.88
2023-05-23T00:39:20.810Z,100543.00
2023-05-23T00:41:53.151Z,100548.75
2023-05-23T00:44:22.832Z,100540.22
2023-05-23T00:46:54.989Z,100545.84
2023-05-23T00:49:24.087Z,100547.69
2023-05-23T00:51:54.295Z,100540.44
2023-05-23T00:54:28.685Z,100534.22
2023-05-23T00:56:58.736Z,100539.84
2023-05-23T00:59:27.728Z,100538.19
2023-05-23T01:01:58.131Z,100534.69
2023-05-23T01:04:28.641Z,100530.09
2023-05-23T01:06:57.788Z,100522.25
2023-05-23T01:09:28.669Z,100530.31
2023-05-23T01:12:08.947Z,100533.03
2023-05-23T01:14:44.228Z,100527.06
2023-05-23T01:17:18.509Z,100525.41
2023-05-23T01:20:13.107Z,100523.78
2023-05-23T01:23:01.497Z,100523.53
2023-05-23T01:25:44.296Z,100514.41
2023-05-23T01:28:18.649Z,100516.84
2023-05-23T01:30:48.433Z,100513.94
2023-05-23T01:33:19.522Z,100509.56
2023-05-23T01:35:49.856Z,100505.84
2023-05-23T01:38:18.122Z,100506.44
2023-05-23T01:40:46.430Z,100499.53
2023-05-23T01:43:16.786Z,100497.47
2023-05-23T01:45:45.309Z,100498.88
2023-05-23T01:48:16.441Z,100501.09
2023-05-23T01:50:46.995Z,100498.97
2023-05-23T01:53:19.375Z,100493.00
2023-05-23T01:55:48.413Z,100494.63
2023-05-23T01:58:18.607Z,100488.41
2023-05-23T02:00:47.845Z,100487.59
2023-05-23T02:03:16.403Z,100485.94
2023-05-23T02:05:45.328Z,100480.00
2023-05-23T02:08:13.546Z,100478.13
2023-05-23T02:10:42.159Z,100477.53
2023-05-23T02:13:10.692Z,100478.34
2023-05-23T02:15:40.673Z,100474.59
2023-05-23T02:18:09.533Z,100476.22
2023-05-23T02:20:38.157Z,100469.22
2023-05-23T02:23:06.681Z,100467.56
2023-05-23T02:25:35.145Z,100471.31
2023-05-23T02:28:03.377Z,100465.28
2023-05-23T02:30:31.885Z,100458.84
2023-05-23T02:33:06.716Z,100456.38
2023-05-23T02:35:35.720Z,100461.53
2023-05-23T02:38:03.946Z,100456.38
2023-05-23T02:40:32.638Z,100452.03
2023-05-23T02:43:01.108Z,100445.59
2023-05-23T02:45:29.629Z,100442.91
2023-05-23T02:47:58.364Z,100441.84
2023-05-23T02:50:28.599Z,100441.03
2023-05-23T02:52:56.712Z,100432.72
2023-05-23T02:55:25.879Z,100440.81
2023-05-23T02:57:54.507Z,100445.16
2023-05-23T03:00:23.298Z,100443.28
2023-05-23T03:02:52.045Z,100439.28
2023-05-23T03:05:20.706Z,100426.97
2023-05-23T03:07:52.133Z,100427.09
2023-05-23T03:10:20.923Z,100434.00
2023-05-23T03:12:49.081Z,100430.84
2023-05-23T03:15:17.871Z,100429.88
2023-05-23T03:17:46.116Z,100432.94
2023-05-23T03:20:15.146Z,100431.66
2023-05-23T03:22:45.868Z,100427.44
2023-05-23T03:25:17.734Z,100425.88
2023-05-23T03:27:45.854Z,100431.66
2023-05-23T03:30:14.910Z,100426.13
2023-05-23T03:32:43.239Z,100427.88
2023-05-23T03:35:13.031Z,100426.94
2023-05-23T03:37:41.584Z,100426.19
2023-05-23T03:40:11.215Z,100425.72
2023-05-23T03:42:41.769Z,100425.59
2023-05-23T03:45:10.166Z,100420.28
2023-05-23T03:47:38.419Z,100420.41
2023-05-23T03:50:07.527Z,100412.41
2023-05-23T03:52:35.779Z,100415.53
2023-05-23T03:55:04.133Z,100416.28
2023-05-23T03:57:32.519Z,100414.63
2023-05-23T04:00:02.628Z,100410.19
2023-05-23T04:02:31.553Z,100404.16
2023-05-23T04:05:00.760Z,100408.22
2023-05-23T04:07:29.509Z,100407.34
2023-05-23T04:09:57.726Z,100409.00
2023-05-23T04:12:26.041Z,100405.72
2023-05-23T04:14:54.824Z,100399.44
2023-05-23T04:17:24.582Z,100395.50
2023-05-23T04:19:53.835Z,100395.34
2023-05-23T04:22:22.173Z,100397.88
2023-05-23T04:24:50.411Z,100399.78
2023-05-23T04:27:18.607Z,100396.00
2023-05-23T04:29:46.923Z,100394.34
2023-05-23T04:32:16.904Z,100391.81
2023-05-23T04:34:46.827Z,100384.19
2023-05-23T04:37:17.530Z,100397.22
2023-05-23T04:39:46.501Z,100393.94
2023-05-23T04:42:15.203Z,100395.84
2023-05-23T04:44:44.316Z,100396.16
2023-05-23T04:47:12.600Z,100393.78
2023-05-23T04:49:40.883Z,100400.00
2023-05-23T04:52:10.970Z,100398.13
2023-05-23T04:54:45.178Z,100392.38
2023-05-23T04:57:13.966Z,100396.72
2023-05-23T04:59:42.755Z,100387.84
2023-05-23T05:02:11.156Z,100393.03
2023-05-23T05:04:39.831Z,100395.44
2023-05-23T05:07:08.679Z,100398.16
2023-05-23T05:09:39.015Z,100394.63
2023-05-23T05:12:07.916Z,100397.59
2023-05-23T05:14:36.201Z,100393.78
2023-05-23T05:17:04.741Z,100395.44
2023-05-23T05:19:33.214Z,100385.66
2023-05-23T05:22:01.555Z,100388.13
2023-05-23T05:24:29.913Z,100387.94
2023-05-23T05:26:59.583Z,100384.41
2023-05-23T05:29:28.960Z,100386.59
2023-05-23T05:31:57.912Z,100380.88
2023-05-23T05:34:26.969Z,100382.06
2023-05-23T05:36:56.806Z,100378.31
2023-05-23T05:39:26.887Z,100383.78
2023-05-23T05:41:55.038Z,100379.47
2023-05-23T05:44:24.697Z,100378.19
2023-05-23T05:46:53.300Z,100379.84
2023-05-23T05:49:21.697Z,100372.81
2023-05-23T05:51:50.642Z,100375.34
2023-05-23T05:54:19.481Z,100376.78
2023-05-23T05:56:48.647Z,100368.44
2023-05-23T05:59:17.027Z,100376.34
2023-05-23T06:01:47.506Z,100374.50
2023-05-23T06:04:16.114Z,100372.66
2023-05-23T06:06:44.878Z,100375.91
2023-05-23T06:09:13.100Z,100369.16
2023-05-23T06:11:41.489Z,100369.47
2023-05-23T06:14:09.952Z,100369.28
2023-05-23T06:16:38.939Z,100373.13
2023-05-23T06:19:09.457Z,100375.59
2023-05-23T06:21:37.619Z,100380.53
2023-05-23T06:24:06.632Z,100373.47
2023-05-23T06:26:35.373Z,100368.03
2023-05-23T06:29:03.517Z,100363.41
2023-05-23T06:31:31.740Z,100362.03
2023-05-23T06:34:00.542Z,100363.94
2023-05-23T06:36:31.992Z,100361.72
2023-05-23T06:39:00.529Z,100352.75
2023-05-23T06:41:28.891Z,100360.63
2023-05-23T06:43:57.153Z,100362.28
2023-05-23T06:46:25.946Z,100352.44
2023-05-23T06:49:02.986Z,100364.38
2023-05-23T06:51:43.786Z,100357.84
2023-05-23T06:54:12.151Z,100349.66
2023-05-23T06:56:40.547Z,100348.84
2023-05-23T06:59:08.859Z,100353.47
2023-05-23T07:01:37.204Z,100352.97
2023-05-23T07:04:05.609Z,100349.72
2023-05-23T07:06:35.741Z,100349.16
2023-05-23T07:09:05.900Z,100348.34
2023-05-23T07:11:35.524Z,100352.97
2023-05-23T07:14:04.437Z,100354.56
2023-05-23T07:16:32.755Z,100360.81
2023-05-23T07:19:02.638Z,100350.41
2023-05-23T07:21:31.092Z,100349.88
2023-05-23T07:24:00.175Z,100355.31
2023-05-23T07:26:29.846Z,100356.09
2023-05-23T07:28:59.163Z,100354.97
2023-05-23T07:31:27.503Z,100351.09
2023-05-23T07:33:56.984Z,100354.34
2023-05-23T07:36:26.204Z,100356.72
2023-05-23T07:38:54.512Z,100353.63
2023-05-23T07:41:22.895Z,100348.97
2023-05-23T07:43:52.583Z,100351.44
2023-05-23T07:46:22.995Z,100346.00
2023-05-23T07:48:51.332Z,100346.84
2023-05-23T07:51:21.480Z,100343.09
2023-05-23T07:53:50.703Z,100346.09
2023-05-23T07:56:18.923Z,100339.34
2023-05-23T07:58:47.118Z,100345.09
2023-05-23T08:01:16.920Z,100337.25
2023-05-23T08:03:45.244Z,100339.22
2023-05-23T08:06:14.344Z,100335.13
2023-05-23T08:08:43.948Z,100334.03
2023-05-23T08:11:12.566Z,100334.53
2023-05-23T08:13:41.059Z,100339.41
2023-05-23T08:16:09.354Z,100345.63
2023-05-23T08:18:39.160Z,100337.16
2023-05-23T08:21:07.577Z,100340.91
2023-05-23T08:23:35.888Z,100339.75
2023-05-23T08:26:04.707Z,100336.16
2023-05-23T08:28:34.843Z,100339.94
2023-05-23T08:31:03.621Z,100345.38
2023-05-23T08:33:32.034Z,100330.56
2023-05-23T08:36:03.440Z,100339.28
2023-05-23T08:38:32.052Z,100338.91
2023-05-23T08:41:03.231Z,100335.88
2023-05-23T08:43:31.597Z,100340.81
2023-05-23T08:46:00.473Z,100334.78
2023-05-23T08:48:29.716Z,100336.31
2023-05-23T08:51:00.218Z,100336.75
2023-05-23T08:53:32.552Z,100332.25
2023-05-23T08:56:02.900Z,100335.44
2023-05-23T08:58:34.870Z,100329.44
2023-05-23T09:01:03.625Z,100324.00
2023-05-23T09:03:33.236Z,100319.59
2023-05-23T09:06:01.886Z,100320.56
2023-05-23T09:08:32.101Z,100318.06
2023-05-23T09:11:02.856Z,100314.63
2023-05-23T09:13:31.368Z,100314.44
2023-05-23T09:16:06.916Z,100314.47
2023-05-23T09:18:36.914Z,100310.59
2023-05-23T09:21:05.405Z,100305.72
2023-05-23T09:23:36.524Z,100302.88
2023-05-23T09:26:05.666Z,100311.44
2023-05-23T09:28:35.103Z,100306.69
2023-05-23T09:31:04.982Z,100303.88
2023-05-23T09:33:44.834Z,100305.31
2023-05-23T09:36:13.590Z,100296.13
2023-05-23T09:38:45.392Z,100306.19
2023-05-23T09:41:14.351Z,100303.50
2023-05-23T09:43:51.316Z,100299.13
2023-05-23T09:46:23.213Z,100303.06
2023-05-23T09:48:53.874Z,100295.78
2023-05-23T09:51:24.384Z,100306.72
2023-05-23T09:53:54.457Z,100301.00
2023-05-23T09:56:24.295Z,100293.75
2023-05-23T09:58:53.160Z,100298.25
2023-05-23T10:01:22.340Z,100299.19
2023-05-23T10:03:51.857Z,100301.13
2023-05-23T10:06:27.217Z,100299.38
2023-05-23T10:09:02.232Z,100292.28
2023-05-23T10:12:09.891Z,100294.00
2023-05-23T10:14:45.357Z,100287.97
2023-05-23T10:17:18.585Z,100285.16
2023-05-23T10:19:55.157Z,100283.19
2023-05-23T10:22:23.940Z,100285.75
2023-05-23T10:24:54.993Z,100280.47
2023-05-23T10:27:23.942Z,100279.56
2023-05-23T10:29:53.038Z,100279.34
2023-05-23T10:32:22.240Z,100273.19
2023-05-23T10:34:57.934Z,100273.81
2023-05-23T10:37:32.984Z,100277.16
2023-05-23T10:40:08.648Z,100274.84
2023-05-23T10:42:47.760Z,100278.25
2023-05-23T10:45:16.913Z,100270.16
2023-05-23T10:47:45.259Z,100265.94
2023-05-23T10:50:17.815Z,100268.81
2023-05-23T10:52:46.588Z,100269.78
2023-05-23T10:55:17.984Z,100267.13
2023-05-23T10:57:47.343Z,100262.50
2023-05-23T11:00:17.391Z,100268.50
2023-05-23T11:02:55.825Z,100266.94
2023-05-23T11:05:28.291Z,100264.44
2023-05-23T11:08:10.427Z,100266.78
2023-05-23T11:10:57.536Z,100264.38
2023-05-23T11:13:26.113Z,100270.13
2023-05-23T11:15:54.777Z,100266.16
2023-05-23T11:18:25.678Z,100268.63
2023-05-23T11:20:55.468Z,100259.66
2023-05-23T11:23:24.221Z,100263.34
2023-05-23T11:25:54.089Z,100260.66
2023-05-23T11:28:24.146Z,100263.09
2023-05-23T11:30:52.568Z,100258.41
2023-05-23T11:33:21.377Z,100257.59
2023-05-23T11:35:52.027Z,100254.94
2023-05-23T11:38:20.931Z,100252.16
2023-05-23T11:40:50.393Z,100248.34
2023-05-23T11:43:19.928Z,100244.63
2023-05-23T11:45:50.268Z,100246.06
2023-05-23T11:48:18.968Z,100239.63
2023-05-23T11:50:50.319Z,100247.44
2023-05-23T11:53:21.637Z,100240.34
2023-05-23T11:55:53.224Z,100235.44
2023-05-23T11:58:22.484Z,100231.41
2023-05-23T12:00:55.233Z,100229.50
2023-05-23T12:03:24.035Z,100226.59
2023-05-23T12:05:52.425Z,100221.09
2023-05-23T12:08:20.923Z,100221.31
2023-05-23T12:10:54.329Z,100221.59
2023-05-23T12:13:26.552Z,100224.16
2023-05-23T12:16:04.863Z,100219.25
2023-05-23T12:18:35.951Z,100215.19
2023-05-23T12:21:06.209Z,100220.38
2023-05-23T12:23:35.850Z,100214.91
2023-05-23T12:26:10.240Z,100218.44
2023-05-23T12:28:40.120Z,100199.91
2023-05-23T12:31:14.156Z,100216.50
2023-05-23T12:33:44.156Z,100216.31
2023-05-23T12:36:14.111Z,100212.63
2023-05-23T12:38:45.549Z,100211.97
2023-05-23T12:41:19.731Z,100217.00
2023-05-23T12:43:53.158Z,100214.25
2023-05-23T12:46:23.698Z,100209.91
2023-05-23T12:48:52.881Z,100206.22
2023-05-23T12:51:22.127Z,100207.38
2023-05-23T12:53:50.425Z,100210.81
2023-05-23T12:56:18.641Z,100207.44
2023-05-23T12:58:46.904Z,100207.31
2023-05-23T13:01:16.060Z,100212.19
2023-05-23T13:03:46.180Z,100204.56
2023-05-23T13:06:14.431Z,100212.78
2023-05-23T13:08:43.077Z,100204.63
2023-05-23T13:11:11.630Z,100213.63
2023-05-23T13:13:40.631Z,100206.19
2023-05-23T13:16:09.634Z,100211.53
2023-05-23T13:18:38.589Z,100202.69
2023-05-23T13:21:08.582Z,100208.16
2023-05-23T13:23:39.003Z,100217.53
2023-05-23T13:26:08.107Z,100216.84
2023-05-23T13:28:36.428Z,100211.47
2023-05-23T13:31:05.330Z,100200.25
2023-05-23T13:33:33.908Z,100206.94
2023-05-23T13:36:02.530Z,100214.03
2023-05-23T13:38:32.460Z,100222.25
2023-05-23T13:41:01.127Z,100225.47
2023-05-23T13:43:29.532Z,100210.94
2023-05-23T13:45:57.795Z,100227.28
2023-05-23T13:48:26.147Z,100233.38
2023-05-23T13:50:55.417Z,100229.03
2023-05-23T13:53:23.813Z,100225.28
2023-05-23T13:55:53.604Z,100227.28
2023-05-23T13:58:22.049Z,100229.09
2023-05-23T14:00:50.286Z,100227.81
2023-05-23T14:03:19.434Z,100233.50
2023-05-23T14:05:47.708Z,100241.75
2023-05-23T14:08:16.014Z,100240.25
2023-05-23T14:10:45.775Z,100249.44
2023-05-23T14:13:15.686Z,100246.53
2023-05-23T14:15:44.032Z,100251.72
2023-05-23T14:18:12.496Z,100245.38
2023-05-23T14:20:41.028Z,100250.97
2023-05-23T14:23:09.223Z,100251.75
2023-05-23T14:25:38.029Z,100255.59
2023-05-23T14:28:06.221Z,100252.34
2023-05-23T14:30:36.086Z,100263.31
2023-05-23T14:33:04.323Z,100260.53
2023-05-23T14:35:34.366Z,100256.97
2023-05-23T14:38:02.522Z,100266.31
2023-05-23T14:40:30.853Z,100267.63
2023-05-23T14:42:59.223Z,100267.44
2023-05-23T14:45:27.451Z,100267.34
2023-05-23T14:47:57.535Z,100275.25
2023-05-23T14:50:26.633Z,100269.47
2023-05-23T14:52:58.231Z,100269.47
2023-05-23T14:55:26.591Z,100264.41
2023-05-23T14:57:55.020Z,100263.44
2023-05-23T15:00:23.511Z,100274.13
2023-05-23T15:02:52.644Z,100272.94
2023-05-23T15:05:22.377Z,100273.81
2023-05-23T15:07:51.243Z,100270.00
2023-05-23T15:10:19.888Z,100267.75
2023-05-23T15:12:48.428Z,100267.34
2023-05-23T15:15:23.008Z,100279.50
2023-05-23T15:17:52.457Z,100272.56
2023-05-23T15:20:22.436Z,100275.00
2023-05-23T15:22:51.721Z,100275.63
2023-05-23T15:25:29.719Z,100279.69
2023-05-23T15:28:02.391Z,100274.44
2023-05-23T15:30:30.546Z,100277.63
2023-05-23T15:33:01.791Z,100274.38
2023-05-23T15:35:32.885Z,100282.13
2023-05-23T15:38:01.003Z,100280.63
2023-05-23T15:40:29.148Z,100277.38
2023-05-23T15:42:57.963Z,100280.25
2023-05-23T15:45:26.621Z,100273.94
2023-05-23T15:48:04.380Z,100272.66
2023-05-23T15:50:34.022Z,100279.56
2023-05-23T15:53:02.560Z,100274.66
2023-05-23T15:55:30.786Z,100286.88
2023-05-23T15:57:59.344Z,100279.72
2023-05-23T16:00:28.216Z,100284.38
2023-05-23T16:02:57.820Z,100286.69
2023-05-23T16:05:26.009Z,100282.75
2023-05-23T16:07:56.121Z,100284.59
2023-05-23T16:10:24.777Z,100283.06
2023-05-23T16:12:53.430Z,100274.44
2023-05-23T16:15:21.747Z,100281.75
2023-05-23T16:17:50.482Z,100280.25
2023-05-23T16:20:18.867Z,100282.28
2023-05-23T16:22:47.970Z,100283.84
2023-05-23T16:25:17.638Z,100285.81
2023-05-23T16:27:46.150Z,100292.22
2023-05-23T16:30:15.102Z,100290.41
2023-05-23T16:32:43.375Z,100292.94
2023-05-23T16:35:12.225Z,100282.69
2023-05-23T16:37:41.918Z,100289.34
2023-05-23T16:40:10.929Z,100287.22
2023-05-23T16:42:40.959Z,100288.72
2023-05-23T16:45:09.954Z,100282.25
2023-05-23T16:47:38.232Z,100290.31
2023-05-23T16:50:08.447Z,100286.25
2023-05-23T16:52:39.828Z,100292.13
2023-05-23T16:55:09.035Z,100289.81
2023-05-23T16:57:37.660Z,100295.19
2023-05-23T17:00:09.387Z,100292.06
2023-05-23T17:02:38.227Z,100288.25
2023-05-23T17:05:07.300Z,100292.06
2023-05-23T17:07:36.587Z,100294.88
2023-05-23T17:10:04.962Z,100306.44
2023-05-23T17:12:33.721Z,100306.88
2023-05-23T17:15:01.925Z,100307.56
2023-05-23T17:17:31.693Z,100303.41
2023-05-23T17:20:00.314Z,100304.84
2023-05-23T17:22:28.511Z,100299.22
2023-05-23T17:24:56.798Z,100307.28
2023-05-23T17:27:25.104Z,100302.19
2023-05-23T17:29:53.418Z,100305.81
2023-05-23T17:32:22.061Z,100312.66
2023-05-23T17:34:52.489Z,100311.50
2023-05-23T17:37:21.299Z,100311.44
2023-05-23T17:39:51.106Z,100314.94
2023-05-23T17:42:19.398Z,100314.66
2023-05-23T17:44:48.035Z,100312.72
2023-05-23T17:47:18.306Z,100305.22
2023-05-23T17:49:46.584Z,100309.78
2023-05-23T17:52:34.883Z,100311.91
2023-05-23T17:55:03.751Z,100320.28
2023-05-23T17:57:32.278Z,100320.44
2023-05-23T18:00:00.631Z,100320.88
2023-05-23T18:02:28.927Z,100327.59
2023-05-23T18:04:57.569Z,100326.97
2023-05-23T18:07:36.174Z,100334.50
2023-05-23T18:10:05.192Z,100330.59
2023-05-23T18:12:33.611Z,100332.09
2023-05-23T18:15:01.971Z,100341.47
2023-05-23T18:17:30.536Z,100347.50
2023-05-23T18:19:58.705Z,100334.75
2023-05-23T18:22:38.760Z,100344.88
2023-05-23T18:25:09.456Z,100349.00
2023-05-23T18:27:37.564Z,100352.78
2023-05-23T18:30:06.607Z,100356.31
2023-05-23T18:32:34.825Z,100356.31
2023-05-23T18:35:03.895Z,100356.00
2023-05-23T18:37:32.554Z,100362.28
2023-05-23T18:40:00.878Z,100366.63
2023-05-23T18:42:32.097Z,100369.03
2023-05-23T18:45:00.860Z,100370.63
2023-05-23T18:47:29.086Z,100365.97
2023-05-23T18:49:58.587Z,100375.16
2023-05-23T18:52:26.929Z,100370.56
2023-05-23T18:54:55.211Z,100378.66
2023-05-23T18:57:24.485Z,100377.00
2023-05-23T18:59:54.135Z,100384.06
2023-05-23T19:02:22.860Z,100383.47
2023-05-23T19:04:52.987Z,100390.53
2023-05-23T19:07:21.939Z,100389.69
2023-05-23T19:09:50.133Z,100390.19
2023-05-23T19:12:18.963Z,100392.31
2023-05-23T19:14:47.705Z,100396.59
2023-05-23T19:17:17.651Z,100392.47
2023-05-23T19:19:45.936Z,100399.22
2023-05-23T19:22:14.756Z,100400.50
2023-05-23T19:24:43.682Z,100404.50
2023-05-23T19:27:11.987Z,100409.34
2023-05-23T19:29:40.739Z,100402.47
2023-05-23T19:32:09.624Z,100410.53
2023-05-23T19:34:39.618Z,100409.38
2023-05-23T19:37:09.911Z,100415.25
2023-05-23T19:39:45.630Z,100416.53
2023-05-23T19:42:13.879Z,100420.50
2023-05-23T19:44:42.070Z,100422.88
2023-05-23T19:47:10.228Z,100424.41
2023-05-23T19:49:39.861Z,100424.25
2023-05-23T19:52:07.981Z,100429.78
2023-05-23T19:54:36.155Z,100431.56
2023-05-23T19:57:05.409Z,100431.69
2023-05-23T19:59:34.096Z,100438.28
2023-05-23T20:02:02.319Z,100427.31
2023-05-23T20:04:30.938Z,100434.19
2023-05-23T20:07:00.746Z,100435.13
2023-05-23T20:09:28.917Z,100441.41
2023-05-23T20:11:57.079Z,100440.34
2023-05-23T20:14:25.863Z,100444.78
2023-05-23T20:16:54.971Z,100440.03
2023-05-23T20:19:23.346Z,100439.88
2023-05-23T20:21:51.530Z,100447.78
2023-05-23T20:24:21.194Z,100444.91
2023-05-23T20:26:49.396Z,100433.91
2023-05-23T20:29:17.932Z,100439.72
2023-05-23T20:31:46.421Z,100447.38
2023-05-23T20:34:14.831Z,100446.91
2023-05-23T20:36:44.005Z,100453.16
2023-05-23T20:39:13.006Z,100449.91
2023-05-23T20:41:43.759Z,100455.56
2023-05-23T20:44:14.115Z,100448.56
2023-05-23T20:46:42.769Z,100454.75
2023-05-23T20:49:11.648Z,100460.53
2023-05-23T20:51:40.404Z,100473.56
2023-05-23T20:54:09.723Z,100468.97
2023-05-23T20:56:37.899Z,100472.84
2023-05-23T20:59:08.244Z,100467.78
2023-05-23T21:01:37.106Z,100479.69
2023-05-23T21:04:05.440Z,100477.34
2023-05-23T21:06:34.313Z,100479.56
2023-05-23T21:09:02.559Z,100487.13
2023-05-23T21:11:30.746Z,100486.06
2023-05-23T21:13:58.982Z,100492.81
2023-05-23T21:16:31.228Z,100491.03
2023-05-23T21:19:00.842Z,100487.63
2023-05-23T21:21:29.602Z,100496.81
2023-05-23T21:23:57.756Z,100505.81
2023-05-23T21:26:26.102Z,100503.19
2023-05-23T21:28:54.228Z,100504.34
2023-05-23T21:31:33.273Z,100509.78
2023-05-23T21:34:23.446Z,100502.84
2023-05-23T21:36:54.433Z,100502.91
2023-05-23T21:39:22.755Z,100504.00
2023-05-23T21:41:51.131Z,100520.22
2023-05-23T21:44:20.429Z,100518.66
2023-05-23T21:46:48.662Z,100523.03
2023-05-23T21:49:18.877Z,100522.28
2023-05-23T21:51:47.176Z,100526.69
2023-05-23T21:54:15.558Z,100522.41
2023-05-23T21:56:44.320Z,100519.19
2023-05-23T21:59:12.816Z,100521.09
2023-05-23T22:01:41.164Z,100530.63
2023-05-23T22:04:09.489Z,100519.56
2023-05-23T22:06:39.601Z,100521.28
2023-05-23T22:09:11.713Z,100522.34
2023-05-23T22:11:40.046Z,100523.66
2023-05-23T22:14:08.721Z,100530.09
2023-05-23T22:16:40.648Z,100540.06
2023-05-23T22:19:12.438Z,100547.56
2023-05-23T22:21:42.150Z,100538.06
2023-05-23T22:24:10.585Z,100546.19
2023-05-23T22:26:39.191Z,100546.84
2023-05-23T22:29:07.627Z,100550.59
2023-05-23T22:31:35.876Z,100553.31
2023-05-23T22:34:04.485Z,100558.28
2023-05-23T22:36:34.560Z,100559.72
2023-05-23T22:39:05.709Z,100561.63
2023-05-23T22:41:34.623Z,100559.75
2023-05-23T22:44:02.852Z,100563.91
2023-05-23T22:46:31.142Z,100560.00
2023-05-23T22:49:00.466Z,100563.31
2023-05-23T22:51:29.432Z,100559.81
2023-05-23T22:53:57.561Z,100555.06
2023-05-23T22:56:27.257Z,100560.03
2023-05-23T22:58:55.723Z,100558.81
2023-05-23T23:01:24.194Z,100561.28
2023-05-23T23:03:52.790Z,100560.25
2023-05-23T23:06:21.504Z,100568.94
2023-05-23T23:08:50.286Z,100567.91
2023-05-23T23:11:18.517Z,100576.34
2023-05-23T23:13:48.150Z,100579.66
2023-05-23T23:16:19.367Z,100577.59
2023-05-23T23:18:49.185Z,100585.41
2023-05-23T23:21:17.639Z,100578.00
2023-05-23T23:23:45.842Z,100575.94
2023-05-23T23:26:14.026Z,100580.00
2023-05-23T23:28:42.181Z,100574.88
2023-05-23T23:31:12.279Z,100567.25
2023-05-23T23:33:40.564Z,100574.25
2023-05-23T23:36:09.844Z,100587.00
2023-05-23T23:38:39.040Z,100578.56
2023-05-23T23:41:07.317Z,100575.66
2023-05-23T23:43:35.542Z,100574.41
2023-05-23T23:46:04.220Z,100582.88
2023-05-23T23:48:33.938Z,100580.81
2023-05-23T23:51:02.568Z,100583.25
2023-05-23T23:53:31.804Z,100582.03
2023-05-23T23:56:00.054Z,100583.44
2023-05-23T23:58:28.484Z,100586.72
